Adelsoe, Sweden

12:51 AM CET on March 29, 2015 (GMT +0100)
Kvartsstigen | | Change Station
CLOSE
Current Station
Personal Weather Station
Location: Stenhamra, Stockholms ln
Elevation: 141 ft
Nearby Weather Stations

Elev 141 ft 59.34 °N, 17.68 °E | Updated 9 seconds ago

Clear
Clear
32.5 °F
Feels Like 32 °F
N
0.4
Wind Variable Wind from North
Gusts 2.9 mph

Today
High -- | Low -- °F
--% Chance of Precip.
Yesterday
High -- | Low -- °F
Precip. -- in
6:26 AM 7:24 PM
Waxing Gibbous, 66% visible
Pressure 29.71 in
Visibility 6.2 miles
Clouds
Windchill 32 °F
Dew Point 32 °F
Humidity 96%
Rainfall 0.00 in
Snow Depth Not available.
UV 0.0 out of 12
Pollen Not available.
Air Quality Not available.
Flu Activity Not available.
METAR ESSB 282320Z AUTO 14006KT 9999 NCD 02/00 Q1006

More Conditions Fewer Conditions

Pressure 29.71 in
Visibility 6.2 miles
Clouds
Windchill 32 °F
Dew Point 32 °F
Humidity 96%
Rainfall 0.00 in
Snow Depth Not available.
UV 0.0 out of 12
Pollen Not available.
Air Quality Not available.
Flu Activity Not available.
METAR ESSB 282320Z AUTO 14006KT 9999 NCD 02/00 Q1006

More Conditions Fewer Conditions

10-Day Weather Forecast

Almanac

Astronomy

Mar. 29, 2015 Rise Set
Actual Time
Civil Twilight
Nautical Twilight
Astronomical Twilight
Moon
Length of Visible Light
Length of Day
Tomorrow will be .
, % of the Moon is Illuminated

Today's Extremes

Country Highs Country Lows

Community

WunderPhotos

Upload Photos

1,809,128 photos uploaded!

WunderBlogs® & News

Nearby

Air Quality

  Air Quality AQ Index Pollutant
Not available.

Snow Depth

Station Depth Elevation

Earthquake Activity

City Distance Mag. Time & Date
Minimum magnitude displayed is 2.5.

Coastal Water Temperatures

Place Temperature

Stations

Nearby Weather Stations

Station Location Temp. Windchill Dew Point Humidity Wind Precip. Elev Updated Type